Suederoog — ZDHC8 — position and weather

sailwx.info

Track history (hours):
 
Tides and Currents Weather Stations Pressure Air Temp Water Temp Dewpoint Dewpoint Depression Visibility Wind Speed Wind Dir Waves Ship Positions

Suederoog

Last reported at 2016-Dec-10 21:03 UTC. Time now 2016-Dec-11 11:58 UTC.
Position N 55°34' E 015°13'.

Length 161 m; draft 9.6 m.

Type: Ship (hazmat cat A). MMSI: 236300000.

Date/timePositionNaut miles runAvg speedWind from/ knotsBaromVisibWave heightAir tempDewpointWater temp
2016-Dec-10 21:03N 55°34' E 015°13'611.8
2016-Dec-10 20:32N 55°31' E 015°03'1111.7
2016-Dec-10 19:33N 55°26' E 014°46'1211.4
2016-Dec-10 18:32N 55°18' E 014°31'1111.3
2016-Dec-10 17:33N 55°09' E 014°19'1111.3
2016-Dec-10 16:33N 55°01' E 014°06'1211.8
2016-Dec-10 15:33N 54°57' E 013°46'1212.1
2016-Dec-10 14:33N 54°53' E 013°26'3411.5
2016-Dec-10 11:33N 54°41' E 012°30'2110.7
2016-Dec-10 09:33N 54°25' E 012°06'1211.3
2016-Dec-10 08:32N 54°25' E 011°46'1111.7
2016-Dec-10 07:33N 54°30' E 011°29'1111.1
2016-Dec-10 06:33N 54°34' E 011°11'1212.2
2016-Dec-10 05:33N 54°34' E 010°50'1211.9
2016-Dec-10 04:33N 54°32' E 010°30'1111.3
2016-Dec-10 03:33N 54°26' E 010°14'5 5.1
2016-Dec-10 02:33N 54°22' E 010°08'5 5.3
2016-Dec-10 01:33N 54°21' E 009°59'6 6.1
2016-Dec-10 00:33N 54°22' E 009°49'6 6.3
2016-Dec-09 23:33N 54°18' E 009°41'5 4.9
2016-Dec-09 22:33N 54°13' E 009°36'11 5.2
2016-Dec-09 20:23N 54°08' E 009°20'6 7.1
2016-Dec-09 19:34N 54°02' E 009°18'6 5.9
2016-Dec-09 18:34N 53°57' E 009°13'4 4.1
2016-Dec-09 17:33N 53°54' E 009°09'0 0.3
2016-Dec-09 16:33N 53°53' E 009°08'4 4.2
2016-Dec-09 15:33N 53°53' E 009°15'1616.3
2016-Dec-09 14:33N 53°39' E 009°31'1312.9
2016-Dec-09 13:33N 53°33' E 009°50'4 4.2
2016-Dec-09 12:33N 53°32' E 009°57'0 0.0
2016-Dec-09 11:33N 53°32' E 009°57'0 0.0
2016-Dec-09 10:33N 53°32' E 009°57'0 0.0
2016-Dec-09 09:33N 53°32' E 009°57'0 0.0
2016-Dec-09 08:32N 53°32' E 009°57'0 0.0
2016-Dec-09 07:32N 53°32' E 009°57'0 0.0
2016-Dec-09 06:32N 53°32' E 009°57'0 0.0
2016-Dec-09 05:32N 53°32' E 009°57'0 0.0
2016-Dec-09 04:32N 53°32' E 009°57'0 0.0
2016-Dec-09 03:32N 53°32' E 009°57'0 0.0
2016-Dec-09 02:32N 53°32' E 009°57'0 0.0
2016-Dec-09 01:32N 53°32' E 009°57'0 0.0
2016-Dec-09 00:32N 53°32' E 009°57'0 0.0
2016-Dec-08 23:32N 53°32' E 009°57'0 0.0
2016-Dec-08 22:32N 53°32' E 009°57'0 0.0
2016-Dec-08 21:32N 53°32' E 009°57'0 0.0
2016-Dec-08 20:32N 53°32' E 009°57'0 0.0
2016-Dec-08 19:32N 53°32' E 009°57'0 0.0
2016-Dec-08 18:32N 53°32' E 009°57'0 0.0
2016-Dec-08 17:32N 53°32' E 009°57'0 0.0
2016-Dec-08 16:32N 53°32' E 009°57'0 0.0
2016-Dec-08 15:32N 53°32' E 009°57'0 0.0
2016-Dec-08 14:32N 53°32' E 009°57'0 0.0
2016-Dec-08 13:32N 53°32' E 009°57'1 1.3
2016-Dec-08 12:31N 53°32' E 009°55'0 0.0
2016-Dec-08 11:31N 53°32' E 009°55'0 0.0
2016-Dec-08 10:31N 53°32' E 009°55'0 0.0
2016-Dec-08 09:31N 53°32' E 009°55'0 0.0
2016-Dec-08 08:31N 53°32' E 009°55'0 0.0
2016-Dec-08 07:31N 53°32' E 009°55'0 0.0
2016-Dec-08 06:31N 53°32' E 009°55'0 0.0
2016-Dec-08 05:31N 53°32' E 009°55'4 3.7
2016-Dec-08 04:34N 53°33' E 009°49'1515.1
2016-Dec-08 03:34N 53°42' E 009°29'1616.5
2016-Dec-08 02:34N 53°53' E 009°08'1 1.0
2016-Dec-08 01:33N 53°54' E 009°09'6 6.2
2016-Dec-08 00:33N 53°58' E 009°16'7 6.6
2016-Dec-07 23:33N 54°05' E 009°19'6 5.4
2016-Dec-07 22:31N 54°10' E 009°24'6 4.6
2016-Dec-07 21:15N 54°12' E 009°33'0 0.5
2016-Dec-07 20:31N 54°12' E 009°34'6 6.2
2016-Dec-07 19:33N 54°17' E 009°39'5 4.9
2016-Dec-07 18:33N 54°21' E 009°45'5 4.8
2016-Dec-07 17:32N 54°21' E 009°54'5 5.1
2016-Dec-07 16:33N 54°22' E 010°02'4 3.8
2016-Dec-07 15:34N 54°22' E 010°09'3 3.2
2016-Dec-07 14:33N 54°24' E 010°12'1211.8
2016-Dec-07 13:33N 54°32' E 010°27'1211.3
2016-Dec-07 12:31N 54°35' E 010°47'1211.6
2016-Dec-07 11:30N 54°36' E 011°07'1112.0
2016-Dec-07 10:33N 54°32' E 011°25'1212.2
2016-Dec-07 09:32N 54°27' E 011°45'1212.0
2016-Dec-07 08:30N 54°26' E 012°06'1210.7
2016-Dec-07 07:24N 54°37' E 012°17'2312.3
2016-Dec-07 05:31N 54°48' E 012°51'3611.9
2016-Dec-07 02:31N 55°01' E 013°50'1111.2
2016-Dec-07 01:33N 55°06' E 014°06'1211.6
2016-Dec-07 00:33N 55°15' E 014°19'1211.9
2016-Dec-06 23:33N 55°24' E 014°32'1211.8
2016-Dec-06 22:33N 55°31' E 014°49'1311.9
2016-Dec-06 21:29N 55°37' E 015°09'44813.6
2016-Dec-05 12:33N 60°08' E 026°20'1111.4
2016-Dec-05 11:33N 60°18' E 026°33'1111.2
2016-Dec-05 10:34N 60°24' E 026°52'2 2.0
2016-Dec-05 09:33N 60°25' E 026°55'0 0.0
2016-Dec-05 08:33N 60°25' E 026°55'0 0.0
2016-Dec-05 07:33N 60°25' E 026°55'0 0.0
2016-Dec-05 06:33N 60°25' E 026°55'0 0.0
2016-Dec-05 05:30N 60°25' E 026°55'0 0.0
2016-Dec-05 04:33N 60°25' E 026°55'0 0.0
2016-Dec-05 03:33N 60°25' E 026°55'0 0.0
2016-Dec-05 02:30N 60°25' E 026°55'0 0.0
2016-Dec-05 01:33N 60°25' E 026°55'0 0.0
2016-Dec-05 00:33N 60°25' E 026°55'0 0.0
2016-Dec-04 23:33N 60°25' E 026°55'0 0.0
2016-Dec-04 22:33N 60°25' E 026°55'0 0.0
2016-Dec-04 21:33N 60°25' E 026°55'0 0.0
2016-Dec-04 20:33N 60°25' E 026°55'0 0.0
2016-Dec-04 19:33N 60°25' E 026°55'0 0.0
2016-Dec-04 18:33N 60°25' E 026°55'0 0.0
2016-Dec-04 17:33N 60°25' E 026°55'0 0.0
2016-Dec-04 16:33N 60°25' E 026°55'0 0.0
2016-Dec-04 15:33N 60°25' E 026°55'0 0.0
2016-Dec-04 14:33N 60°25' E 026°55'0 0.0
2016-Dec-04 13:33N 60°25' E 026°55'0 0.0
2016-Dec-04 12:33N 60°25' E 026°55'0 0.0
2016-Dec-04 11:33N 60°25' E 026°55'0 0.0
2016-Dec-04 10:33N 60°25' E 026°55'0 0.0
2016-Dec-04 09:33N 60°25' E 026°55'0 0.0
2016-Dec-04 08:33N 60°25' E 026°55'0 0.0
2016-Dec-04 07:33N 60°25' E 026°55'0 0.0
2016-Dec-04 06:33N 60°25' E 026°55'1 1.1
2016-Dec-04 05:33N 60°24' E 026°54'1110.6
2016-Dec-04 04:33N 60°19' E 026°35'1010.0
2016-Dec-04 03:34N 60°11' E 026°22'10 9.8
2016-Dec-04 02:34N 60°05' E 026°36'1310.7
2016-Dec-04 01:21N 59°60' E 027°00'911.4
2016-Dec-04 00:33N 60°03' E 027°17'1211.6
2016-Dec-03 23:33N 60°09' E 027°37'1010.4
2016-Dec-03 22:33N 60°11' E 027°57'1111.0
2016-Dec-03 21:33N 60°07' E 028°18'1110.8
2016-Dec-03 20:33N 60°03' E 028°38'8 8.5
2016-Dec-03 19:33N 60°02' E 028°55'8 7.4
2016-Dec-03 18:33N 60°02' E 029°10'5 3.8
2016-Dec-03 17:17N 60°01' E 029°19'0 0.0
2016-Dec-03 14:23N 60°01' E 029°19'0 0.0
2016-Dec-03 13:14N 60°01' E 029°19'6 7.4
2016-Dec-03 12:24N 60°02' E 029°07'2310.9
2016-Dec-03 10:19N 59°57' E 029°51'10 9.3
2016-Dec-03 09:12N 59°53' E 030°11'1 1.8
2016-Dec-03 08:33N 59°52' E 030°12'0 0.0
2016-Dec-03 07:33N 59°52' E 030°12'0 0.0
2016-Dec-03 06:33N 59°52' E 030°12'0 0.0
2016-Dec-03 05:30N 59°52' E 030°12'0 0.0
2016-Dec-03 04:33N 59°52' E 030°12'0 0.0
2016-Dec-03 03:33N 59°52' E 030°12'0 0.0
2016-Dec-03 02:33N 59°52' E 030°12'0 0.0
2016-Dec-03 01:33N 59°52' E 030°12'0 0.0
2016-Dec-03 00:33N 59°52' E 030°12'0 0.0
2016-Dec-02 23:33N 59°52' E 030°12'0 0.0
2016-Dec-02 22:33N 59°52' E 030°12'0 0.0
2016-Dec-02 21:13N 59°52' E 030°12'0 0.0
2016-Dec-02 20:28N 59°52' E 030°12'0 0.4
2016-Dec-02 19:33N 59°53' E 030°12'0 0.3
2016-Dec-02 18:31N 59°53' E 030°12'0 0.0
2016-Dec-02 17:31N 59°53' E 030°12'0 0.0
2016-Dec-02 16:31N 59°53' E 030°12'0 0.0
2016-Dec-02 15:31N 59°53' E 030°12'0 0.0
2016-Dec-02 14:31N 59°53' E 030°12'0 0.0
2016-Dec-02 13:31N 59°53' E 030°12'0 0.0
2016-Dec-02 12:31N 59°53' E 030°12'0 0.0
2016-Dec-02 11:31N 59°53' E 030°12'0 0.0
2016-Dec-02 10:31N 59°53' E 030°12'0 0.0
2016-Dec-02 09:31N 59°53' E 030°12'0 0.0
2016-Dec-02 08:31N 59°53' E 030°12'0 0.0
2016-Dec-02 07:31N 59°53' E 030°12'0 0.0
2016-Dec-02 06:31N 59°53' E 030°12'0 0.0
2016-Dec-02 05:31N 59°53' E 030°12'0 0.0
2016-Dec-02 04:31N 59°53' E 030°12'0 0.0
2016-Dec-02 03:31N 59°53' E 030°12'0 0.0
2016-Dec-02 02:33N 59°53' E 030°12'7 6.6
2016-Dec-02 01:33N 59°55' E 029°60'1110.5
2016-Dec-02 00:33N 59°60' E 029°41'1210.2
2016-Dec-01 23:21N 60°04' E 029°17'0 0.5
2016-Dec-01 22:30N 60°04' E 029°18'3 1.6
2016-Dec-01 20:33N 60°02' E 029°13'1310.6
2016-Dec-01 19:19N 60°02' E 028°46'911.4
2016-Dec-01 18:33N 60°03' E 028°29'1111.2
2016-Dec-01 17:33N 60°08' E 028°09'1111.4
2016-Dec-01 16:34N 60°11' E 027°47'1211.5
2016-Dec-01 15:32N 60°05' E 027°27'1111.4
2016-Dec-01 14:32N 59°59' E 027°07'1111.0
2016-Dec-01 13:33N 59°59' E 026°46'1111.3
2016-Dec-01 12:33N 59°57' E 026°24'6212.3
2016-Dec-01 07:32N 59°43' E 024°24'1111.6
2016-Dec-01 06:33N 59°40' E 024°03'1211.9
2016-Dec-01 05:33N 59°36' E 023°41'1211.7
2016-Dec-01 04:32N 59°32' E 023°18'  
Track history (hours):
 
Tides and Currents Weather Stations Pressure Air Temp Water Temp Dewpoint Dewpoint Depression Visibility Wind Speed Wind Dir Waves Ship Positions

Suederoog

Last reported at 2016-Dec-10 21:03 UTC. Time now 2016-Dec-11 11:58 UTC.
Position N 55°34' E 015°13'.

Length 161 m; draft 9.6 m.

Type: Ship (hazmat cat A). MMSI: 236300000.

Date/timePositionNaut miles runAvg speedWind from/ knotsBaromVisibWave heightAir tempDewpointWater temp
2016-Dec-10 21:03N 55°34' E 015°13'611.8
2016-Dec-10 20:32N 55°31' E 015°03'1111.7
2016-Dec-10 19:33N 55°26' E 014°46'1211.4
2016-Dec-10 18:32N 55°18' E 014°31'1111.3
2016-Dec-10 17:33N 55°09' E 014°19'1111.3
2016-Dec-10 16:33N 55°01' E 014°06'1211.8
2016-Dec-10 15:33N 54°57' E 013°46'1212.1
2016-Dec-10 14:33N 54°53' E 013°26'3411.5
2016-Dec-10 11:33N 54°41' E 012°30'2110.7
2016-Dec-10 09:33N 54°25' E 012°06'1211.3
2016-Dec-10 08:32N 54°25' E 011°46'1111.7
2016-Dec-10 07:33N 54°30' E 011°29'1111.1
2016-Dec-10 06:33N 54°34' E 011°11'1212.2
2016-Dec-10 05:33N 54°34' E 010°50'1211.9
2016-Dec-10 04:33N 54°32' E 010°30'1111.3
2016-Dec-10 03:33N 54°26' E 010°14'5 5.1
2016-Dec-10 02:33N 54°22' E 010°08'5 5.3
2016-Dec-10 01:33N 54°21' E 009°59'6 6.1
2016-Dec-10 00:33N 54°22' E 009°49'6 6.3
2016-Dec-09 23:33N 54°18' E 009°41'5 4.9
2016-Dec-09 22:33N 54°13' E 009°36'11 5.2
2016-Dec-09 20:23N 54°08' E 009°20'6 7.1
2016-Dec-09 19:34N 54°02' E 009°18'6 5.9
2016-Dec-09 18:34N 53°57' E 009°13'4 4.1
2016-Dec-09 17:33N 53°54' E 009°09'0 0.3
2016-Dec-09 16:33N 53°53' E 009°08'4 4.2
2016-Dec-09 15:33N 53°53' E 009°15'1616.3
2016-Dec-09 14:33N 53°39' E 009°31'1312.9
2016-Dec-09 13:33N 53°33' E 009°50'4 4.2
2016-Dec-09 12:33N 53°32' E 009°57'0 0.0
2016-Dec-09 11:33N 53°32' E 009°57'0 0.0
2016-Dec-09 10:33N 53°32' E 009°57'0 0.0
2016-Dec-09 09:33N 53°32' E 009°57'0 0.0
2016-Dec-09 08:32N 53°32' E 009°57'0 0.0
2016-Dec-09 07:32N 53°32' E 009°57'0 0.0
2016-Dec-09 06:32N 53°32' E 009°57'0 0.0
2016-Dec-09 05:32N 53°32' E 009°57'0 0.0
2016-Dec-09 04:32N 53°32' E 009°57'0 0.0
2016-Dec-09 03:32N 53°32' E 009°57'0 0.0
2016-Dec-09 02:32N 53°32' E 009°57'0 0.0
2016-Dec-09 01:32N 53°32' E 009°57'0 0.0
2016-Dec-09 00:32N 53°32' E 009°57'0 0.0
2016-Dec-08 23:32N 53°32' E 009°57'0 0.0
2016-Dec-08 22:32N 53°32' E 009°57'0 0.0
2016-Dec-08 21:32N 53°32' E 009°57'0 0.0
2016-Dec-08 20:32N 53°32' E 009°57'0 0.0
2016-Dec-08 19:32N 53°32' E 009°57'0 0.0
2016-Dec-08 18:32N 53°32' E 009°57'0 0.0
2016-Dec-08 17:32N 53°32' E 009°57'0 0.0
2016-Dec-08 16:32N 53°32' E 009°57'0 0.0
2016-Dec-08 15:32N 53°32' E 009°57'0 0.0
2016-Dec-08 14:32N 53°32' E 009°57'0 0.0
2016-Dec-08 13:32N 53°32' E 009°57'1 1.3
2016-Dec-08 12:31N 53°32' E 009°55'0 0.0
2016-Dec-08 11:31N 53°32' E 009°55'0 0.0
2016-Dec-08 10:31N 53°32' E 009°55'0 0.0
2016-Dec-08 09:31N 53°32' E 009°55'0 0.0
2016-Dec-08 08:31N 53°32' E 009°55'0 0.0
2016-Dec-08 07:31N 53°32' E 009°55'0 0.0
2016-Dec-08 06:31N 53°32' E 009°55'0 0.0
2016-Dec-08 05:31N 53°32' E 009°55'4 3.7
2016-Dec-08 04:34N 53°33' E 009°49'1515.1
2016-Dec-08 03:34N 53°42' E 009°29'1616.5
2016-Dec-08 02:34N 53°53' E 009°08'1 1.0
2016-Dec-08 01:33N 53°54' E 009°09'6 6.2
2016-Dec-08 00:33N 53°58' E 009°16'7 6.6
2016-Dec-07 23:33N 54°05' E 009°19'6 5.4
2016-Dec-07 22:31N 54°10' E 009°24'6 4.6
2016-Dec-07 21:15N 54°12' E 009°33'0 0.5
2016-Dec-07 20:31N 54°12' E 009°34'6 6.2
2016-Dec-07 19:33N 54°17' E 009°39'5 4.9
2016-Dec-07 18:33N 54°21' E 009°45'5 4.8
2016-Dec-07 17:32N 54°21' E 009°54'5 5.1
2016-Dec-07 16:33N 54°22' E 010°02'4 3.8
2016-Dec-07 15:34N 54°22' E 010°09'3 3.2
2016-Dec-07 14:33N 54°24' E 010°12'1211.8
2016-Dec-07 13:33N 54°32' E 010°27'1211.3
2016-Dec-07 12:31N 54°35' E 010°47'1211.6
2016-Dec-07 11:30N 54°36' E 011°07'1112.0
2016-Dec-07 10:33N 54°32' E 011°25'1212.2
2016-Dec-07 09:32N 54°27' E 011°45'1212.0
2016-Dec-07 08:30N 54°26' E 012°06'1210.7
2016-Dec-07 07:24N 54°37' E 012°17'2312.3
2016-Dec-07 05:31N 54°48' E 012°51'3611.9
2016-Dec-07 02:31N 55°01' E 013°50'1111.2
2016-Dec-07 01:33N 55°06' E 014°06'1211.6
2016-Dec-07 00:33N 55°15' E 014°19'1211.9
2016-Dec-06 23:33N 55°24' E 014°32'1211.8
2016-Dec-06 22:33N 55°31' E 014°49'1311.9
2016-Dec-06 21:29N 55°37' E 015°09'44813.6
2016-Dec-05 12:33N 60°08' E 026°20'1111.4
2016-Dec-05 11:33N 60°18' E 026°33'1111.2
2016-Dec-05 10:34N 60°24' E 026°52'2 2.0
2016-Dec-05 09:33N 60°25' E 026°55'0 0.0
2016-Dec-05 08:33N 60°25' E 026°55'0 0.0
2016-Dec-05 07:33N 60°25' E 026°55'0 0.0
2016-Dec-05 06:33N 60°25' E 026°55'0 0.0
2016-Dec-05 05:30N 60°25' E 026°55'0 0.0
2016-Dec-05 04:33N 60°25' E 026°55'0 0.0
2016-Dec-05 03:33N 60°25' E 026°55'0 0.0
2016-Dec-05 02:30N 60°25' E 026°55'0 0.0
2016-Dec-05 01:33N 60°25' E 026°55'0 0.0
2016-Dec-05 00:33N 60°25' E 026°55'0 0.0
2016-Dec-04 23:33N 60°25' E 026°55'0 0.0
2016-Dec-04 22:33N 60°25' E 026°55'0 0.0
2016-Dec-04 21:33N 60°25' E 026°55'0 0.0
2016-Dec-04 20:33N 60°25' E 026°55'0 0.0
2016-Dec-04 19:33N 60°25' E 026°55'0 0.0
2016-Dec-04 18:33N 60°25' E 026°55'0 0.0
2016-Dec-04 17:33N 60°25' E 026°55'0 0.0
2016-Dec-04 16:33N 60°25' E 026°55'0 0.0
2016-Dec-04 15:33N 60°25' E 026°55'0 0.0
2016-Dec-04 14:33N 60°25' E 026°55'0 0.0
2016-Dec-04 13:33N 60°25' E 026°55'0 0.0
2016-Dec-04 12:33N 60°25' E 026°55'0 0.0
2016-Dec-04 11:33N 60°25' E 026°55'0 0.0
2016-Dec-04 10:33N 60°25' E 026°55'0 0.0
2016-Dec-04 09:33N 60°25' E 026°55'0 0.0
2016-Dec-04 08:33N 60°25' E 026°55'0 0.0
2016-Dec-04 07:33N 60°25' E 026°55'0 0.0
2016-Dec-04 06:33N 60°25' E 026°55'1 1.1
2016-Dec-04 05:33N 60°24' E 026°54'1110.6
2016-Dec-04 04:33N 60°19' E 026°35'1010.0
2016-Dec-04 03:34N 60°11' E 026°22'10 9.8
2016-Dec-04 02:34N 60°05' E 026°36'1310.7
2016-Dec-04 01:21N 59°60' E 027°00'911.4
2016-Dec-04 00:33N 60°03' E 027°17'1211.6
2016-Dec-03 23:33N 60°09' E 027°37'1010.4
2016-Dec-03 22:33N 60°11' E 027°57'1111.0
2016-Dec-03 21:33N 60°07' E 028°18'1110.8
2016-Dec-03 20:33N 60°03' E 028°38'8 8.5
2016-Dec-03 19:33N 60°02' E 028°55'8 7.4
2016-Dec-03 18:33N 60°02' E 029°10'5 3.8
2016-Dec-03 17:17N 60°01' E 029°19'0 0.0
2016-Dec-03 14:23N 60°01' E 029°19'0 0.0
2016-Dec-03 13:14N 60°01' E 029°19'6 7.4
2016-Dec-03 12:24N 60°02' E 029°07'2310.9
2016-Dec-03 10:19N 59°57' E 029°51'10 9.3
2016-Dec-03 09:12N 59°53' E 030°11'1 1.8
2016-Dec-03 08:33N 59°52' E 030°12'0 0.0
2016-Dec-03 07:33N 59°52' E 030°12'0 0.0
2016-Dec-03 06:33N 59°52' E 030°12'0 0.0
2016-Dec-03 05:30N 59°52' E 030°12'0 0.0
2016-Dec-03 04:33N 59°52' E 030°12'0 0.0
2016-Dec-03 03:33N 59°52' E 030°12'0 0.0
2016-Dec-03 02:33N 59°52' E 030°12'0 0.0
2016-Dec-03 01:33N 59°52' E 030°12'0 0.0
2016-Dec-03 00:33N 59°52' E 030°12'0 0.0
2016-Dec-02 23:33N 59°52' E 030°12'0 0.0
2016-Dec-02 22:33N 59°52' E 030°12'0 0.0
2016-Dec-02 21:13N 59°52' E 030°12'0 0.0
2016-Dec-02 20:28N 59°52' E 030°12'0 0.4
2016-Dec-02 19:33N 59°53' E 030°12'0 0.3
2016-Dec-02 18:31N 59°53' E 030°12'0 0.0
2016-Dec-02 17:31N 59°53' E 030°12'0 0.0
2016-Dec-02 16:31N 59°53' E 030°12'0 0.0
2016-Dec-02 15:31N 59°53' E 030°12'0 0.0
2016-Dec-02 14:31N 59°53' E 030°12'0 0.0
2016-Dec-02 13:31N 59°53' E 030°12'0 0.0
2016-Dec-02 12:31N 59°53' E 030°12'0 0.0
2016-Dec-02 11:31N 59°53' E 030°12'0 0.0
2016-Dec-02 10:31N 59°53' E 030°12'0 0.0
2016-Dec-02 09:31N 59°53' E 030°12'0 0.0
2016-Dec-02 08:31N 59°53' E 030°12'0 0.0
2016-Dec-02 07:31N 59°53' E 030°12'0 0.0
2016-Dec-02 06:31N 59°53' E 030°12'0 0.0
2016-Dec-02 05:31N 59°53' E 030°12'0 0.0
2016-Dec-02 04:31N 59°53' E 030°12'0 0.0
2016-Dec-02 03:31N 59°53' E 030°12'0 0.0
2016-Dec-02 02:33N 59°53' E 030°12'7 6.6
2016-Dec-02 01:33N 59°55' E 029°60'1110.5
2016-Dec-02 00:33N 59°60' E 029°41'1210.2
2016-Dec-01 23:21N 60°04' E 029°17'0 0.5
2016-Dec-01 22:30N 60°04' E 029°18'3 1.6
2016-Dec-01 20:33N 60°02' E 029°13'1310.6
2016-Dec-01 19:19N 60°02' E 028°46'911.4
2016-Dec-01 18:33N 60°03' E 028°29'1111.2
2016-Dec-01 17:33N 60°08' E 028°09'1111.4
2016-Dec-01 16:34N 60°11' E 027°47'1211.5
2016-Dec-01 15:32N 60°05' E 027°27'1111.4
2016-Dec-01 14:32N 59°59' E 027°07'1111.0
2016-Dec-01 13:33N 59°59' E 026°46'1111.3
2016-Dec-01 12:33N 59°57' E 026°24'6212.3
2016-Dec-01 07:32N 59°43' E 024°24'1111.6
2016-Dec-01 06:33N 59°40' E 024°03'1211.9
2016-Dec-01 05:33N 59°36' E 023°41'1211.7
2016-Dec-01 04:32N 59°32' E 023°18'  

Dump ship's entire track history